sensor_id;sensor_type;location;lat;lon;timestamp;temperature;humidity
83729;DHT22;73707;56.480;-2.840;2024-01-15T00:02:20;3.70;99.20
83729;DHT22;73707;56.480;-2.840;2024-01-15T00:04:46;3.70;99.10
83729;DHT22;73707;56.480;-2.840;2024-01-15T00:07:11;3.70;99.30
83729;DHT22;73707;56.480;-2.840;2024-01-15T00:09:37;3.70;99.10
83729;DHT22;73707;56.480;-2.840;2024-01-15T00:12:03;3.60;99.00
83729;DHT22;73707;56.480;-2.840;2024-01-15T00:14:29;3.60;99.00
83729;DHT22;73707;56.480;-2.840;2024-01-15T00:16:54;3.60;99.00
83729;DHT22;73707;56.480;-2.840;2024-01-15T00:19:23;3.50;98.80
83729;DHT22;73707;56.480;-2.840;2024-01-15T00:21:49;3.40;98.80
83729;DHT22;73707;56.480;-2.840;2024-01-15T00:24:18;3.40;98.70
83729;DHT22;73707;56.480;-2.840;2024-01-15T00:26:44;3.40;98.90
83729;DHT22;73707;56.480;-2.840;2024-01-15T00:29:10;3.30;98.80
83729;DHT22;73707;56.480;-2.840;2024-01-15T00:31:36;3.30;98.70
83729;DHT22;73707;56.480;-2.840;2024-01-15T00:34:02;3.30;98.90
83729;DHT22;73707;56.480;-2.840;2024-01-15T00:36:27;3.30;98.70
83729;DHT22;73707;56.480;-2.840;2024-01-15T00:38:54;3.30;98.80
83729;DHT22;73707;56.480;-2.840;2024-01-15T00:41:20;3.30;98.90
83729;DHT22;73707;56.480;-2.840;2024-01-15T00:43:46;3.30;98.70
83729;DHT22;73707;56.480;-2.840;2024-01-15T00:46:12;3.30;98.60
83729;DHT22;73707;56.480;-2.840;2024-01-15T00:48:37;3.30;98.60
83729;DHT22;73707;56.480;-2.840;2024-01-15T00:51:04;3.30;98.90
83729;DHT22;73707;56.480;-2.840;2024-01-15T00:53:30;3.20;98.80
83729;DHT22;73707;56.480;-2.840;2024-01-15T00:55:55;3.20;98.80
83729;DHT22;73707;56.480;-2.840;2024-01-15T00:58:21;3.10;98.70
83729;DHT22;73707;56.480;-2.840;2024-01-15T01:00:47;3.10;98.70
83729;DHT22;73707;56.480;-2.840;2024-01-15T01:03:12;3.10;98.70
83729;DHT22;73707;56.480;-2.840;2024-01-15T01:05:38;3.10;98.60
83729;DHT22;73707;56.480;-2.840;2024-01-15T01:08:04;3.10;98.80
83729;DHT22;73707;56.480;-2.840;2024-01-15T01:10:30;3.10;98.70
83729;DHT22;73707;56.480;-2.840;2024-01-15T01:12:56;3.10;98.90
83729;DHT22;73707;56.480;-2.840;2024-01-15T01:15:21;3.10;98.90
83729;DHT22;73707;56.480;-2.840;2024-01-15T01:17:47;3.10;98.90
83729;DHT22;73707;56.480;-2.840;2024-01-15T01:20:16;3.10;98.90
83729;DHT22;73707;56.480;-2.840;2024-01-15T01:22:41;3.10;98.70
83729;DHT22;73707;56.480;-2.840;2024-01-15T01:25:07;3.10;98.80
83729;DHT22;73707;56.480;-2.840;2024-01-15T01:27:34;3.00;98.90
83729;DHT22;73707;56.480;-2.840;2024-01-15T01:30:00;3.00;98.80
83729;DHT22;73707;56.480;-2.840;2024-01-15T01:32:26;3.00;98.80
83729;DHT22;73707;56.480;-2.840;2024-01-15T01:34:51;3.00;98.90
83729;DHT22;73707;56.480;-2.840;2024-01-15T01:37:18;2.90;98.80
83729;DHT22;73707;56.480;-2.840;2024-01-15T01:39:44;2.90;98.60
83729;DHT22;73707;56.480;-2.840;2024-01-15T01:42:10;2.90;98.70
83729;DHT22;73707;56.480;-2.840;2024-01-15T01:44:37;2.80;98.90
83729;DHT22;73707;56.480;-2.840;2024-01-15T01:47:03;2.80;98.50
83729;DHT22;73707;56.480;-2.840;2024-01-15T01:49:30;2.80;98.60
83729;DHT22;73707;56.480;-2.840;2024-01-15T01:51:57;2.80;98.60
83729;DHT22;73707;56.480;-2.840;2024-01-15T01:54:24;2.70;98.60
83729;DHT22;73707;56.480;-2.840;2024-01-15T01:56:51;2.60;98.60
83729;DHT22;73707;56.480;-2.840;2024-01-15T01:59:17;2.60;98.50
83729;DHT22;73707;56.480;-2.840;2024-01-15T02:01:44;2.60;98.40
83729;DHT22;73707;56.480;-2.840;2024-01-15T02:04:11;2.50;98.50
83729;DHT22;73707;56.480;-2.840;2024-01-15T02:06:36;2.50;98.60
83729;DHT22;73707;56.480;-2.840;2024-01-15T02:09:03;2.50;98.50
83729;DHT22;73707;56.480;-2.840;2024-01-15T02:11:31;2.50;98.40
83729;DHT22;73707;56.480;-2.840;2024-01-15T02:13:56;2.50;98.60
83729;DHT22;73707;56.480;-2.840;2024-01-15T02:16:22;2.50;98.70
83729;DHT22;73707;56.480;-2.840;2024-01-15T02:18:48;2.60;98.70
83729;DHT22;73707;56.480;-2.840;2024-01-15T02:21:14;2.60;98.70
83729;DHT22;73707;56.480;-2.840;2024-01-15T02:23:39;2.60;98.80
83729;DHT22;73707;56.480;-2.840;2024-01-15T02:26:05;2.60;98.80
83729;DHT22;73707;56.480;-2.840;2024-01-15T02:28:32;2.60;98.80
83729;DHT22;73707;56.480;-2.840;2024-01-15T02:30:58;2.60;98.60
83729;DHT22;73707;56.480;-2.840;2024-01-15T02:33:24;2.60;98.60
83729;DHT22;73707;56.480;-2.840;2024-01-15T02:35:50;2.60;98.70
83729;DHT22;73707;56.480;-2.840;2024-01-15T02:38:16;2.60;98.70
83729;DHT22;73707;56.480;-2.840;2024-01-15T02:40:43;2.50;98.70
83729;DHT22;73707;56.480;-2.840;2024-01-15T02:43:08;2.50;98.60
83729;DHT22;73707;56.480;-2.840;2024-01-15T02:45:34;2.50;98.60
83729;DHT22;73707;56.480;-2.840;2024-01-15T02:48:00;2.50;98.70
83729;DHT22;73707;56.480;-2.840;2024-01-15T02:50:26;2.50;98.70
83729;DHT22;73707;56.480;-2.840;2024-01-15T02:52:52;2.50;98.70
83729;DHT22;73707;56.480;-2.840;2024-01-15T02:55:17;2.50;98.80
83729;DHT22;73707;56.480;-2.840;2024-01-15T02:57:43;2.50;98.60
83729;DHT22;73707;56.480;-2.840;2024-01-15T03:00:09;2.50;98.60
83729;DHT22;73707;56.480;-2.840;2024-01-15T03:02:39;2.50;98.60
83729;DHT22;73707;56.480;-2.840;2024-01-15T03:05:09;2.50;98.90
83729;DHT22;73707;56.480;-2.840;2024-01-15T03:07:35;2.50;98.90
83729;DHT22;73707;56.480;-2.840;2024-01-15T03:10:01;2.60;98.90
83729;DHT22;73707;56.480;-2.840;2024-01-15T03:12:26;2.50;98.90
83729;DHT22;73707;56.480;-2.840;2024-01-15T03:14:52;2.60;99.00
83729;DHT22;73707;56.480;-2.840;2024-01-15T03:17:18;2.60;99.00
83729;DHT22;73707;56.480;-2.840;2024-01-15T03:19:44;2.50;98.90
83729;DHT22;73707;56.480;-2.840;2024-01-15T03:22:09;2.50;98.80
83729;DHT22;73707;56.480;-2.840;2024-01-15T03:24:35;2.50;98.90
83729;DHT22;73707;56.480;-2.840;2024-01-15T03:27:02;2.50;98.80
83729;DHT22;73707;56.480;-2.840;2024-01-15T03:29:27;2.40;98.80
83729;DHT22;73707;56.480;-2.840;2024-01-15T03:31:53;2.40;98.80
83729;DHT22;73707;56.480;-2.840;2024-01-15T03:34:19;2.30;98.80
83729;DHT22;73707;56.480;-2.840;2024-01-15T03:36:44;2.30;98.70
83729;DHT22;73707;56.480;-2.840;2024-01-15T03:39:10;2.30;98.70
83729;DHT22;73707;56.480;-2.840;2024-01-15T03:41:36;2.30;98.70
83729;DHT22;73707;56.480;-2.840;2024-01-15T03:44:01;2.20;98.80
83729;DHT22;73707;56.480;-2.840;2024-01-15T03:46:27;2.20;98.80
83729;DHT22;73707;56.480;-2.840;2024-01-15T03:48:53;2.20;98.80
83729;DHT22;73707;56.480;-2.840;2024-01-15T03:51:19;2.20;98.70
83729;DHT22;73707;56.480;-2.840;2024-01-15T03:53:45;2.10;98.70
83729;DHT22;73707;56.480;-2.840;2024-01-15T03:56:11;2.10;98.70
83729;DHT22;73707;56.480;-2.840;2024-01-15T03:58:36;2.10;98.60
83729;DHT22;73707;56.480;-2.840;2024-01-15T04:01:03;2.00;98.70
83729;DHT22;73707;56.480;-2.840;2024-01-15T04:03:28;2.00;98.70
83729;DHT22;73707;56.480;-2.840;2024-01-15T04:05:54;2.00;98.70
83729;DHT22;73707;56.480;-2.840;2024-01-15T04:08:20;2.00;98.70
83729;DHT22;73707;56.480;-2.840;2024-01-15T04:10:45;2.00;98.80
83729;DHT22;73707;56.480;-2.840;2024-01-15T04:13:11;2.00;98.80
83729;DHT22;73707;56.480;-2.840;2024-01-15T04:15:36;2.00;98.80
83729;DHT22;73707;56.480;-2.840;2024-01-15T04:18:03;2.00;98.70
83729;DHT22;73707;56.480;-2.840;2024-01-15T04:20:29;2.00;98.80
83729;DHT22;73707;56.480;-2.840;2024-01-15T04:22:55;2.00;98.80
83729;DHT22;73707;56.480;-2.840;2024-01-15T04:25:20;2.00;98.80
83729;DHT22;73707;56.480;-2.840;2024-01-15T04:27:46;2.00;98.80
83729;DHT22;73707;56.480;-2.840;2024-01-15T04:30:12;2.00;98.80
83729;DHT22;73707;56.480;-2.840;2024-01-15T04:32:38;2.00;98.80
83729;DHT22;73707;56.480;-2.840;2024-01-15T04:35:04;2.00;98.80
83729;DHT22;73707;56.480;-2.840;2024-01-15T04:37:29;2.00;98.80
83729;DHT22;73707;56.480;-2.840;2024-01-15T04:39:55;1.90;98.80
83729;DHT22;73707;56.480;-2.840;2024-01-15T04:42:23;1.90;98.80
83729;DHT22;73707;56.480;-2.840;2024-01-15T04:44:48;2.00;98.90
83729;DHT22;73707;56.480;-2.840;2024-01-15T04:47:14;1.90;98.90
83729;DHT22;73707;56.480;-2.840;2024-01-15T04:49:40;1.90;98.80
83729;DHT22;73707;56.480;-2.840;2024-01-15T04:52:05;2.00;98.80
83729;DHT22;73707;56.480;-2.840;2024-01-15T04:54:31;1.90;98.80
83729;DHT22;73707;56.480;-2.840;2024-01-15T04:56:57;2.00;98.80
83729;DHT22;73707;56.480;-2.840;2024-01-15T04:59:23;2.00;98.90
83729;DHT22;73707;56.480;-2.840;2024-01-15T05:01:48;1.90;98.90
83729;DHT22;73707;56.480;-2.840;2024-01-15T05:04:14;1.90;98.80
83729;DHT22;73707;56.480;-2.840;2024-01-15T05:06:40;1.90;98.80
83729;DHT22;73707;56.480;-2.840;2024-01-15T05:09:05;1.80;98.70
83729;DHT22;73707;56.480;-2.840;2024-01-15T05:11:32;1.80;98.80
83729;DHT22;73707;56.480;-2.840;2024-01-15T05:13:58;1.80;98.80
83729;DHT22;73707;56.480;-2.840;2024-01-15T05:16:23;1.80;98.70
83729;DHT22;73707;56.480;-2.840;2024-01-15T05:18:49;1.80;98.70
83729;DHT22;73707;56.480;-2.840;2024-01-15T05:21:15;1.70;98.70
83729;DHT22;73707;56.480;-2.840;2024-01-15T05:23:40;1.70;98.70
83729;DHT22;73707;56.480;-2.840;2024-01-15T05:26:06;1.70;98.70
83729;DHT22;73707;56.480;-2.840;2024-01-15T05:28:32;1.70;98.70
83729;DHT22;73707;56.480;-2.840;2024-01-15T05:30:58;1.70;98.70
83729;DHT22;73707;56.480;-2.840;2024-01-15T05:33:24;1.70;98.80
83729;DHT22;73707;56.480;-2.840;2024-01-15T05:35:49;1.70;98.80
83729;DHT22;73707;56.480;-2.840;2024-01-15T05:38:16;1.70;98.90
83729;DHT22;73707;56.480;-2.840;2024-01-15T05:40:42;1.70;98.80
83729;DHT22;73707;56.480;-2.840;2024-01-15T05:43:08;1.70;98.80
83729;DHT22;73707;56.480;-2.840;2024-01-15T05:45:38;1.60;98.80
83729;DHT22;73707;56.480;-2.840;2024-01-15T05:48:04;1.60;98.70
83729;DHT22;73707;56.480;-2.840;2024-01-15T05:50:29;1.60;98.80
83729;DHT22;73707;56.480;-2.840;2024-01-15T05:52:55;1.60;98.80
83729;DHT22;73707;56.480;-2.840;2024-01-15T05:55:21;1.60;98.80
83729;DHT22;73707;56.480;-2.840;2024-01-15T05:57:47;1.60;98.80
83729;DHT22;73707;56.480;-2.840;2024-01-15T06:00:13;1.60;98.80
83729;DHT22;73707;56.480;-2.840;2024-01-15T06:02:39;1.60;98.80
83729;DHT22;73707;56.480;-2.840;2024-01-15T06:05:05;1.60;98.80
83729;DHT22;73707;56.480;-2.840;2024-01-15T06:07:32;1.60;98.80
83729;DHT22;73707;56.480;-2.840;2024-01-15T06:09:57;1.60;98.80
83729;DHT22;73707;56.480;-2.840;2024-01-15T06:12:23;1.60;98.80
83729;DHT22;73707;56.480;-2.840;2024-01-15T06:14:49;1.60;98.80
83729;DHT22;73707;56.480;-2.840;2024-01-15T06:17:14;1.60;98.70
83729;DHT22;73707;56.480;-2.840;2024-01-15T06:19:40;1.60;98.80
83729;DHT22;73707;56.480;-2.840;2024-01-15T06:22:06;1.60;98.80
83729;DHT22;73707;56.480;-2.840;2024-01-15T06:24:31;1.60;99.00
83729;DHT22;73707;56.480;-2.840;2024-01-15T06:26:57;1.60;98.80
83729;DHT22;73707;56.480;-2.840;2024-01-15T06:29:26;1.60;98.80
83729;DHT22;73707;56.480;-2.840;2024-01-15T06:31:52;1.60;98.80
83729;DHT22;73707;56.480;-2.840;2024-01-15T06:34:18;1.60;98.70
83729;DHT22;73707;56.480;-2.840;2024-01-15T06:36:43;1.60;98.80
83729;DHT22;73707;56.480;-2.840;2024-01-15T06:39:09;1.60;98.80
83729;DHT22;73707;56.480;-2.840;2024-01-15T06:41:37;1.60;99.10
83729;DHT22;73707;56.480;-2.840;2024-01-15T06:44:12;1.60;98.80
83729;DHT22;73707;56.480;-2.840;2024-01-15T06:46:45;1.60;98.90
83729;DHT22;73707;56.480;-2.840;2024-01-15T06:49:11;1.60;98.80
83729;DHT22;73707;56.480;-2.840;2024-01-15T06:51:37;1.60;98.90
83729;DHT22;73707;56.480;-2.840;2024-01-15T06:54:03;1.60;98.80
83729;DHT22;73707;56.480;-2.840;2024-01-15T06:56:30;1.60;98.70
83729;DHT22;73707;56.480;-2.840;2024-01-15T06:58:56;1.60;98.70
83729;DHT22;73707;56.480;-2.840;2024-01-15T07:01:22;1.60;98.70
83729;DHT22;73707;56.480;-2.840;2024-01-15T07:03:47;1.60;98.70
83729;DHT22;73707;56.480;-2.840;2024-01-15T07:06:13;1.60;98.80
83729;DHT22;73707;56.480;-2.840;2024-01-15T07:08:40;1.60;98.80
83729;DHT22;73707;56.480;-2.840;2024-01-15T07:11:06;1.50;98.70
83729;DHT22;73707;56.480;-2.840;2024-01-15T07:13:32;1.50;98.70
83729;DHT22;73707;56.480;-2.840;2024-01-15T07:15:58;1.50;98.60
83729;DHT22;73707;56.480;-2.840;2024-01-15T07:18:23;1.50;98.70
83729;DHT22;73707;56.480;-2.840;2024-01-15T07:20:50;1.50;98.70
83729;DHT22;73707;56.480;-2.840;2024-01-15T07:23:15;1.50;98.70
83729;DHT22;73707;56.480;-2.840;2024-01-15T07:25:41;1.50;98.70
83729;DHT22;73707;56.480;-2.840;2024-01-15T07:28:07;1.50;98.70
83729;DHT22;73707;56.480;-2.840;2024-01-15T07:30:33;1.60;98.80
83729;DHT22;73707;56.480;-2.840;2024-01-15T07:32:59;1.60;98.70
83729;DHT22;73707;56.480;-2.840;2024-01-15T07:35:24;1.60;98.80
83729;DHT22;73707;56.480;-2.840;2024-01-15T07:37:50;1.60;98.70
83729;DHT22;73707;56.480;-2.840;2024-01-15T07:40:16;1.60;98.80
83729;DHT22;73707;56.480;-2.840;2024-01-15T07:42:42;1.60;98.80
83729;DHT22;73707;56.480;-2.840;2024-01-15T07:45:10;1.60;98.70
83729;DHT22;73707;56.480;-2.840;2024-01-15T07:47:36;1.70;98.80
83729;DHT22;73707;56.480;-2.840;2024-01-15T07:50:03;1.70;98.70
83729;DHT22;73707;56.480;-2.840;2024-01-15T07:52:29;1.70;98.80
83729;DHT22;73707;56.480;-2.840;2024-01-15T07:54:56;1.70;98.80
83729;DHT22;73707;56.480;-2.840;2024-01-15T07:57:21;1.70;98.90
83729;DHT22;73707;56.480;-2.840;2024-01-15T07:59:48;1.70;98.90
83729;DHT22;73707;56.480;-2.840;2024-01-15T08:02:14;1.70;98.60
83729;DHT22;73707;56.480;-2.840;2024-01-15T08:04:40;1.70;98.80
83729;DHT22;73707;56.480;-2.840;2024-01-15T08:07:05;1.70;98.50
83729;DHT22;73707;56.480;-2.840;2024-01-15T08:09:33;1.70;98.70
83729;DHT22;73707;56.480;-2.840;2024-01-15T08:11:59;1.70;98.70
83729;DHT22;73707;56.480;-2.840;2024-01-15T08:14:25;1.70;98.80
83729;DHT22;73707;56.480;-2.840;2024-01-15T08:16:50;1.70;98.70
83729;DHT22;73707;56.480;-2.840;2024-01-15T08:19:16;1.70;98.60
83729;DHT22;73707;56.480;-2.840;2024-01-15T08:21:42;1.80;98.70
83729;DHT22;73707;56.480;-2.840;2024-01-15T08:24:08;1.70;98.80
83729;DHT22;73707;56.480;-2.840;2024-01-15T08:26:34;1.70;98.60
83729;DHT22;73707;56.480;-2.840;2024-01-15T08:29:00;1.80;98.80
83729;DHT22;73707;56.480;-2.840;2024-01-15T08:31:27;1.80;98.90
83729;DHT22;73707;56.480;-2.840;2024-01-15T08:33:53;1.80;99.00
83729;DHT22;73707;56.480;-2.840;2024-01-15T08:36:19;1.80;99.00
83729;DHT22;73707;56.480;-2.840;2024-01-15T08:38:45;1.80;99.00
83729;DHT22;73707;56.480;-2.840;2024-01-15T08:41:10;1.80;98.90
83729;DHT22;73707;56.480;-2.840;2024-01-15T08:43:36;1.80;98.90
83729;DHT22;73707;56.480;-2.840;2024-01-15T08:46:02;1.70;98.90
83729;DHT22;73707;56.480;-2.840;2024-01-15T08:48:29;1.80;99.00
83729;DHT22;73707;56.480;-2.840;2024-01-15T08:50:55;1.70;98.90
83729;DHT22;73707;56.480;-2.840;2024-01-15T08:53:21;1.70;98.80
83729;DHT22;73707;56.480;-2.840;2024-01-15T08:55:47;1.70;98.90
83729;DHT22;73707;56.480;-2.840;2024-01-15T08:58:13;1.70;98.90
83729;DHT22;73707;56.480;-2.840;2024-01-15T09:00:39;1.70;98.90
83729;DHT22;73707;56.480;-2.840;2024-01-15T09:03:04;1.70;98.90
83729;DHT22;73707;56.480;-2.840;2024-01-15T09:05:30;1.80;98.90
83729;DHT22;73707;56.480;-2.840;2024-01-15T09:07:56;1.80;98.90
83729;DHT22;73707;56.480;-2.840;2024-01-15T09:10:22;1.80;98.90
83729;DHT22;73707;56.480;-2.840;2024-01-15T09:12:47;1.80;98.60
83729;DHT22;73707;56.480;-2.840;2024-01-15T09:15:14;1.90;98.60
83729;DHT22;73707;56.480;-2.840;2024-01-15T09:17:40;2.00;98.80
83729;DHT22;73707;56.480;-2.840;2024-01-15T09:20:07;2.00;98.70
83729;DHT22;73707;56.480;-2.840;2024-01-15T09:22:32;2.00;98.90
83729;DHT22;73707;56.480;-2.840;2024-01-15T09:24:58;2.10;99.10
83729;DHT22;73707;56.480;-2.840;2024-01-15T09:27:24;2.10;99.20
83729;DHT22;73707;56.480;-2.840;2024-01-15T09:29:53;2.20;99.20
83729;DHT22;73707;56.480;-2.840;2024-01-15T09:32:19;2.20;99.30
83729;DHT22;73707;56.480;-2.840;2024-01-15T09:34:45;2.20;99.30
83729;DHT22;73707;56.480;-2.840;2024-01-15T09:37:12;2.30;99.20
83729;DHT22;73707;56.480;-2.840;2024-01-15T09:39:38;2.30;98.90
83729;DHT22;73707;56.480;-2.840;2024-01-15T09:42:04;2.30;99.00
83729;DHT22;73707;56.480;-2.840;2024-01-15T09:44:31;2.40;99.00
83729;DHT22;73707;56.480;-2.840;2024-01-15T09:46:57;2.40;98.90
83729;DHT22;73707;56.480;-2.840;2024-01-15T09:49:23;2.50;99.00
83729;DHT22;73707;56.480;-2.840;2024-01-15T09:51:49;2.60;99.00
83729;DHT22;73707;56.480;-2.840;2024-01-15T09:54:18;2.70;99.00
83729;DHT22;73707;56.480;-2.840;2024-01-15T09:56:47;2.70;99.10
83729;DHT22;73707;56.480;-2.840;2024-01-15T09:59:17;2.80;98.90
83729;DHT22;73707;56.480;-2.840;2024-01-15T10:01:47;2.90;99.00
83729;DHT22;73707;56.480;-2.840;2024-01-15T10:04:15;2.90;98.90
83729;DHT22;73707;56.480;-2.840;2024-01-15T10:06:45;3.00;98.80
83729;DHT22;73707;56.480;-2.840;2024-01-15T10:09:12;3.10;98.70
83729;DHT22;73707;56.480;-2.840;2024-01-15T10:11:42;3.20;98.60
83729;DHT22;73707;56.480;-2.840;2024-01-15T10:14:09;3.40;98.40
83729;DHT22;73707;56.480;-2.840;2024-01-15T10:16:38;3.50;98.50
83729;DHT22;73707;56.480;-2.840;2024-01-15T10:19:03;3.60;98.10
83729;DHT22;73707;56.480;-2.840;2024-01-15T10:21:34;3.70;98.30
83729;DHT22;73707;56.480;-2.840;2024-01-15T10:24:00;3.80;98.30
83729;DHT22;73707;56.480;-2.840;2024-01-15T10:26:26;3.90;98.10
83729;DHT22;73707;56.480;-2.840;2024-01-15T10:28:52;4.00;97.90
83729;DHT22;73707;56.480;-2.840;2024-01-15T10:31:18;4.10;98.20
83729;DHT22;73707;56.480;-2.840;2024-01-15T10:33:45;4.20;98.00
83729;DHT22;73707;56.480;-2.840;2024-01-15T10:36:10;4.30;98.10
83729;DHT22;73707;56.480;-2.840;2024-01-15T10:38:39;4.30;98.20
83729;DHT22;73707;56.480;-2.840;2024-01-15T10:41:04;4.30;98.10
83729;DHT22;73707;56.480;-2.840;2024-01-15T10:43:30;4.30;98.10
83729;DHT22;73707;56.480;-2.840;2024-01-15T10:45:56;4.40;98.00
83729;DHT22;73707;56.480;-2.840;2024-01-15T10:48:22;4.40;98.20
83729;DHT22;73707;56.480;-2.840;2024-01-15T10:50:48;4.50;98.20
83729;DHT22;73707;56.480;-2.840;2024-01-15T10:53:15;4.50;98.20
83729;DHT22;73707;56.480;-2.840;2024-01-15T10:55:42;4.60;97.90
83729;DHT22;73707;56.480;-2.840;2024-01-15T10:58:09;4.70;98.10
83729;DHT22;73707;56.480;-2.840;2024-01-15T11:00:35;4.80;98.40
83729;DHT22;73707;56.480;-2.840;2024-01-15T11:03:03;4.90;98.60
83729;DHT22;73707;56.480;-2.840;2024-01-15T11:05:42;4.90;98.70
83729;DHT22;73707;56.480;-2.840;2024-01-15T11:08:09;5.00;98.70
83729;DHT22;73707;56.480;-2.840;2024-01-15T11:13:39;5.00;98.90
83729;DHT22;73707;56.480;-2.840;2024-01-15T11:16:06;5.00;98.90
83729;DHT22;73707;56.480;-2.840;2024-01-15T11:28:54;4.90;99.00
83729;DHT22;73707;56.480;-2.840;2024-01-15T11:31:29;4.90;99.30
83729;DHT22;73707;56.480;-2.840;2024-01-15T11:33:55;5.00;99.10
83729;DHT22;73707;56.480;-2.840;2024-01-15T11:42:01;5.20;99.20
83729;DHT22;73707;56.480;-2.840;2024-01-15T11:44:27;5.20;99.20
83729;DHT22;73707;56.480;-2.840;2024-01-15T11:47:04;5.30;99.20
83729;DHT22;73707;56.480;-2.840;2024-01-15T11:52:18;5.30;99.00
83729;DHT22;73707;56.480;-2.840;2024-01-15T11:57:25;5.30;98.90
83729;DHT22;73707;56.480;-2.840;2024-01-15T11:59:54;5.30;98.90
83729;DHT22;73707;56.480;-2.840;2024-01-15T12:02:20;5.40;98.90
83729;DHT22;73707;56.480;-2.840;2024-01-15T12:04:46;5.40;99.10
83729;DHT22;73707;56.480;-2.840;2024-01-15T12:07:11;5.50;98.90
83729;DHT22;73707;56.480;-2.840;2024-01-15T12:09:43;5.60;99.00
83729;DHT22;73707;56.480;-2.840;2024-01-15T12:12:13;5.60;98.80
83729;DHT22;73707;56.480;-2.840;2024-01-15T12:14:45;5.70;98.90
83729;DHT22;73707;56.480;-2.840;2024-01-15T12:17:11;5.90;98.80
83729;DHT22;73707;56.480;-2.840;2024-01-15T12:19:37;5.90;98.60
83729;DHT22;73707;56.480;-2.840;2024-01-15T12:22:03;6.00;98.60
83729;DHT22;73707;56.480;-2.840;2024-01-15T12:24:29;6.10;98.50
83729;DHT22;73707;56.480;-2.840;2024-01-15T12:26:54;6.10;98.50
83729;DHT22;73707;56.480;-2.840;2024-01-15T12:29:20;6.20;98.40
83729;DHT22;73707;56.480;-2.840;2024-01-15T12:31:50;6.20;98.30
83729;DHT22;73707;56.480;-2.840;2024-01-15T12:34:17;6.20;98.40
83729;DHT22;73707;56.480;-2.840;2024-01-15T12:36:42;6.30;98.30
83729;DHT22;73707;56.480;-2.840;2024-01-15T12:39:11;6.30;98.20
83729;DHT22;73707;56.480;-2.840;2024-01-15T12:41:38;6.30;98.10
83729;DHT22;73707;56.480;-2.840;2024-01-15T12:44:04;6.30;98.10
83729;DHT22;73707;56.480;-2.840;2024-01-15T12:46:30;6.40;98.10
83729;DHT22;73707;56.480;-2.840;2024-01-15T12:48:56;6.50;98.30
83729;DHT22;73707;56.480;-2.840;2024-01-15T12:51:25;6.60;98.10
83729;DHT22;73707;56.480;-2.840;2024-01-15T12:53:52;6.60;97.80
83729;DHT22;73707;56.480;-2.840;2024-01-15T12:56:18;6.70;97.90
83729;DHT22;73707;56.480;-2.840;2024-01-15T12:58:43;6.80;97.80
83729;DHT22;73707;56.480;-2.840;2024-01-15T13:01:09;6.80;97.80
83729;DHT22;73707;56.480;-2.840;2024-01-15T13:03:35;6.90;97.60
83729;DHT22;73707;56.480;-2.840;2024-01-15T13:06:01;7.00;98.10
83729;DHT22;73707;56.480;-2.840;2024-01-15T13:08:27;7.00;97.80
83729;DHT22;73707;56.480;-2.840;2024-01-15T13:10:55;7.10;98.00
83729;DHT22;73707;56.480;-2.840;2024-01-15T13:13:22;7.10;98.00
83729;DHT22;73707;56.480;-2.840;2024-01-15T13:15:48;7.10;98.00
83729;DHT22;73707;56.480;-2.840;2024-01-15T13:18:14;7.20;97.90
83729;DHT22;73707;56.480;-2.840;2024-01-15T13:20:40;7.20;97.40
83729;DHT22;73707;56.480;-2.840;2024-01-15T13:23:05;7.20;97.50
83729;DHT22;73707;56.480;-2.840;2024-01-15T13:25:31;7.30;97.20
83729;DHT22;73707;56.480;-2.840;2024-01-15T13:27:59;7.30;97.40
83729;DHT22;73707;56.480;-2.840;2024-01-15T13:30:25;7.30;97.40
83729;DHT22;73707;56.480;-2.840;2024-01-15T13:32:51;7.30;97.50
83729;DHT22;73707;56.480;-2.840;2024-01-15T13:35:19;7.40;97.40
83729;DHT22;73707;56.480;-2.840;2024-01-15T13:37:45;7.40;97.60
83729;DHT22;73707;56.480;-2.840;2024-01-15T13:40:10;7.50;97.60
83729;DHT22;73707;56.480;-2.840;2024-01-15T13:42:42;7.60;97.40
83729;DHT22;73707;56.480;-2.840;2024-01-15T13:45:07;7.50;97.30
83729;DHT22;73707;56.480;-2.840;2024-01-15T13:47:33;7.50;97.10
83729;DHT22;73707;56.480;-2.840;2024-01-15T13:49:59;7.50;96.90
83729;DHT22;73707;56.480;-2.840;2024-01-15T13:52:25;7.60;96.70
83729;DHT22;73707;56.480;-2.840;2024-01-15T13:54:53;7.60;97.20
83729;DHT22;73707;56.480;-2.840;2024-01-15T13:57:19;7.60;96.50
83729;DHT22;73707;56.480;-2.840;2024-01-15T13:59:45;7.70;97.00
83729;DHT22;73707;56.480;-2.840;2024-01-15T14:02:10;7.80;96.80
83729;DHT22;73707;56.480;-2.840;2024-01-15T14:04:37;7.80;96.60
83729;DHT22;73707;56.480;-2.840;2024-01-15T14:07:03;7.90;96.60
83729;DHT22;73707;56.480;-2.840;2024-01-15T14:09:29;7.90;96.50
83729;DHT22;73707;56.480;-2.840;2024-01-15T14:11:57;7.90;96.40
83729;DHT22;73707;56.480;-2.840;2024-01-15T14:14:23;8.00;95.80
83729;DHT22;73707;56.480;-2.840;2024-01-15T14:16:49;8.00;96.10
83729;DHT22;73707;56.480;-2.840;2024-01-15T14:19:15;8.00;96.00
83729;DHT22;73707;56.480;-2.840;2024-01-15T14:21:41;8.10;96.10
83729;DHT22;73707;56.480;-2.840;2024-01-15T14:24:06;8.10;96.40
83729;DHT22;73707;56.480;-2.840;2024-01-15T14:26:32;8.10;96.10
83729;DHT22;73707;56.480;-2.840;2024-01-15T14:28:58;8.10;96.20
83729;DHT22;73707;56.480;-2.840;2024-01-15T14:31:24;8.10;96.10
83729;DHT22;73707;56.480;-2.840;2024-01-15T14:33:52;8.10;95.80
83729;DHT22;73707;56.480;-2.840;2024-01-15T14:36:18;8.20;96.00
83729;DHT22;73707;56.480;-2.840;2024-01-15T14:38:43;8.10;95.10
83729;DHT22;73707;56.480;-2.840;2024-01-15T14:41:09;8.10;95.60
83729;DHT22;73707;56.480;-2.840;2024-01-15T14:43:34;8.10;95.10
83729;DHT22;73707;56.480;-2.840;2024-01-15T14:46:00;8.10;95.40
83729;DHT22;73707;56.480;-2.840;2024-01-15T14:48:26;8.10;95.80
83729;DHT22;73707;56.480;-2.840;2024-01-15T14:50:52;8.10;95.60
83729;DHT22;73707;56.480;-2.840;2024-01-15T14:53:17;8.10;95.90
83729;DHT22;73707;56.480;-2.840;2024-01-15T14:55:43;8.10;94.90
83729;DHT22;73707;56.480;-2.840;2024-01-15T14:58:09;8.10;95.20
83729;DHT22;73707;56.480;-2.840;2024-01-15T15:00:35;8.00;94.60
83729;DHT22;73707;56.480;-2.840;2024-01-15T15:03:00;8.00;94.90
83729;DHT22;73707;56.480;-2.840;2024-01-15T15:05:26;8.00;95.10
83729;DHT22;73707;56.480;-2.840;2024-01-15T15:07:52;7.90;94.10
83729;DHT22;73707;56.480;-2.840;2024-01-15T15:10:17;7.90;93.90
83729;DHT22;73707;56.480;-2.840;2024-01-15T15:12:43;7.80;94.30
83729;DHT22;73707;56.480;-2.840;2024-01-15T15:15:09;7.70;93.40
83729;DHT22;73707;56.480;-2.840;2024-01-15T15:17:37;7.70;94.10
83729;DHT22;73707;56.480;-2.840;2024-01-15T15:20:05;7.60;93.50
83729;DHT22;73707;56.480;-2.840;2024-01-15T15:22:31;7.60;94.00
83729;DHT22;73707;56.480;-2.840;2024-01-15T15:24:56;7.50;93.20
83729;DHT22;73707;56.480;-2.840;2024-01-15T15:27:22;7.40;94.20
83729;DHT22;73707;56.480;-2.840;2024-01-15T15:29:48;7.40;94.60
83729;DHT22;73707;56.480;-2.840;2024-01-15T15:32:15;7.40;94.40
83729;DHT22;73707;56.480;-2.840;2024-01-15T15:34:41;7.30;94.80
83729;DHT22;73707;56.480;-2.840;2024-01-15T15:37:06;7.30;94.70
83729;DHT22;73707;56.480;-2.840;2024-01-15T15:39:33;7.20;94.90
83729;DHT22;73707;56.480;-2.840;2024-01-15T15:41:58;7.10;94.30
83729;DHT22;73707;56.480;-2.840;2024-01-15T15:44:24;7.10;94.30
83729;DHT22;73707;56.480;-2.840;2024-01-15T15:46:50;7.00;94.60
83729;DHT22;73707;56.480;-2.840;2024-01-15T15:49:15;6.90;94.80